Terminal Aerodrome Forecast
Issued by NWS

Home | Current Version | Previous Version | Text Only | Print | Product List | Glossary Off
Versions: 1 2 3 4 5 6 7 8 9 10 11 12 13 14 15 16 17

000
FTUS43 KJKL 041721
TAFSME
TAF
KSME 041721Z 0418/0518 27007KT P6SM SCT050
     FM042100 29007KT P6SM VCTS BKN050CB
     FM050100 VRB04KT P6SM SCT060
     FM050900 00000KT 1/2SM FG SCT005
     FM051300 18004KT P6SM SCT040=

USA.gov is the U.S. government's official web portal to all federal, state and local government web resources and services.